createdAt,value
2023-03-06T00:00:23.278Z,63.31
2023-03-06T00:00:59.055Z,62.80
2023-03-06T00:01:31.368Z,62.51
2023-03-06T00:02:03.847Z,62.57
2023-03-06T00:02:36.148Z,62.65
2023-03-06T00:03:09.074Z,62.68
2023-03-06T00:03:41.392Z,62.62
2023-03-06T00:04:13.799Z,62.56
2023-03-06T00:04:46.131Z,62.60
2023-03-06T00:05:18.758Z,62.52
2023-03-06T00:05:51.128Z,62.44
2023-03-06T00:06:23.421Z,62.44
2023-03-06T00:06:55.763Z,62.55
2023-03-06T00:07:28.041Z,63.26
2023-03-06T00:08:00.339Z,63.38
2023-03-06T00:08:32.627Z,62.99
2023-03-06T00:09:04.933Z,62.94
2023-03-06T00:09:37.252Z,62.87
2023-03-06T00:10:15.475Z,62.70
2023-03-06T00:10:47.875Z,62.60
2023-03-06T00:11:21.032Z,62.55
2023-03-06T00:11:53.316Z,62.28
2023-03-06T00:12:27.619Z,62.43
2023-03-06T00:13:06.030Z,62.52
2023-03-06T00:13:38.634Z,62.46
2023-03-06T00:14:10.970Z,62.48
2023-03-06T00:14:43.350Z,62.35
2023-03-06T00:15:15.729Z,62.51
2023-03-06T00:15:49.007Z,62.59
2023-03-06T00:16:21.389Z,62.71
2023-03-06T00:16:56.928Z,62.68
2023-03-06T00:17:29.241Z,62.79
2023-03-06T00:18:04.550Z,62.72
2023-03-06T00:18:36.937Z,62.64
2023-03-06T00:19:09.316Z,62.62
2023-03-06T00:19:41.669Z,62.51
2023-03-06T00:20:15.550Z,62.61
2023-03-06T00:20:47.825Z,62.58
2023-03-06T00:21:20.221Z,62.51
2023-03-06T00:21:52.490Z,62.95
2023-03-06T00:22:24.757Z,63.14
2023-03-06T00:22:57.660Z,63.01
2023-03-06T00:23:30.118Z,63.06
2023-03-06T00:24:02.435Z,62.59
2023-03-06T00:24:34.721Z,62.59
2023-03-06T00:25:08.388Z,62.96
2023-03-06T00:25:45.205Z,63.16
2023-03-06T00:26:17.472Z,63.20
2023-03-06T00:26:49.778Z,63.07
2023-03-06T00:27:22.143Z,63.09
2023-03-06T00:27:54.396Z,63.26
2023-03-06T00:28:27.228Z,63.40
2023-03-06T00:28:59.601Z,63.44
2023-03-06T00:29:32.016Z,63.34
2023-03-06T00:30:05.746Z,62.95
2023-03-06T00:30:38.212Z,62.81
2023-03-06T00:31:10.520Z,62.78
2023-03-06T00:31:46.357Z,62.90
2023-03-06T00:32:18.720Z,63.20
2023-03-06T00:32:53.220Z,63.44
2023-03-06T00:33:25.566Z,63.47
2023-03-06T00:33:57.857Z,63.41
2023-03-06T00:34:30.147Z,63.37
2023-03-06T00:35:02.439Z,63.47
2023-03-06T00:35:34.747Z,63.29
2023-03-06T00:36:07.510Z,63.37
2023-03-06T00:36:39.841Z,63.61
2023-03-06T00:37:12.106Z,63.32
2023-03-06T00:37:44.941Z,62.98
2023-03-06T00:38:17.348Z,62.73
2023-03-06T00:38:49.635Z,62.80
2023-03-06T00:39:22.206Z,62.75
2023-03-06T00:39:54.550Z,62.59
2023-03-06T00:40:27.285Z,62.62
2023-03-06T00:40:59.876Z,62.83
2023-03-06T00:41:32.176Z,62.71
2023-03-06T00:42:04.660Z,62.93
2023-03-06T00:42:36.994Z,63.21
2023-03-06T00:43:09.503Z,63.21
2023-03-06T00:43:41.885Z,63.20
2023-03-06T00:44:14.136Z,63.36
2023-03-06T00:44:46.510Z,63.31
2023-03-06T00:45:18.894Z,63.32
2023-03-06T00:45:51.483Z,63.60
2023-03-06T00:46:23.819Z,63.81
2023-03-06T00:46:56.111Z,63.74
2023-03-06T00:47:28.489Z,63.49
2023-03-06T00:48:00.806Z,63.47
2023-03-06T00:48:33.658Z,63.26
2023-03-06T00:49:05.942Z,63.31
2023-03-06T00:49:38.364Z,63.21
2023-03-06T00:50:11.500Z,63.08
2023-03-06T00:50:43.849Z,63.11
2023-03-06T00:51:17.313Z,63.17
2023-03-06T00:51:49.611Z,63.18
2023-03-06T00:52:21.995Z,63.37
2023-03-06T00:52:54.310Z,63.56
2023-03-06T00:53:26.641Z,63.65
2023-03-06T00:53:59.022Z,63.50
2023-03-06T00:54:31.347Z,63.32
2023-03-06T00:55:04.254Z,63.20
2023-03-06T00:55:36.598Z,63.01
2023-03-06T00:56:09.219Z,62.91
2023-03-06T00:56:41.555Z,62.96
2023-03-06T00:57:13.815Z,63.09
2023-03-06T00:57:46.118Z,63.32
2023-03-06T00:58:18.548Z,63.74
2023-03-06T00:58:50.888Z,63.62
2023-03-06T00:59:23.194Z,63.40
2023-03-06T00:59:55.503Z,63.72
2023-03-06T01:00:27.773Z,63.70
2023-03-06T01:01:00.033Z,63.54
2023-03-06T01:01:32.401Z,63.18
2023-03-06T01:02:05.099Z,62.98
2023-03-06T01:02:37.444Z,63.10
2023-03-06T01:03:09.827Z,63.24
2023-03-06T01:03:42.105Z,63.18
2023-03-06T01:04:14.672Z,63.31
2023-03-06T01:04:47.013Z,63.48
2023-03-06T01:05:19.431Z,63.34
2023-03-06T01:05:51.686Z,63.42
2023-03-06T01:06:24.331Z,63.49
2023-03-06T01:06:56.670Z,63.21
2023-03-06T01:07:29.833Z,62.97
2023-03-06T01:08:02.224Z,63.01
2023-03-06T01:08:34.654Z,62.93
2023-03-06T01:09:06.954Z,63.04
2023-03-06T01:09:39.273Z,62.96
2023-03-06T01:10:12.049Z,62.95
2023-03-06T01:10:44.314Z,62.94
2023-03-06T01:11:16.682Z,62.95
2023-03-06T01:11:48.943Z,62.77
2023-03-06T01:12:23.311Z,62.71
2023-03-06T01:12:55.922Z,62.66
2023-03-06T01:13:28.269Z,62.64
2023-03-06T01:14:00.852Z,62.81
2023-03-06T01:14:33.441Z,62.92
2023-03-06T01:15:07.075Z,62.83
2023-03-06T01:15:40.086Z,63.00
2023-03-06T01:16:15.540Z,62.90
2023-03-06T01:16:48.068Z,62.84
2023-03-06T01:17:20.359Z,62.90
2023-03-06T01:17:54.576Z,63.10
2023-03-06T01:18:26.885Z,63.22
2023-03-06T01:18:59.457Z,63.16
2023-03-06T01:19:31.730Z,63.44
2023-03-06T01:20:05.150Z,63.60
2023-03-06T01:20:37.802Z,63.33
2023-03-06T01:21:10.114Z,63.21
2023-03-06T01:21:42.443Z,63.15
2023-03-06T01:22:14.696Z,63.10
2023-03-06T01:22:46.965Z,63.04
2023-03-06T01:23:19.220Z,62.88
2023-03-06T01:23:51.579Z,62.97
2023-03-06T01:24:25.763Z,63.06
2023-03-06T01:24:58.126Z,63.17
2023-03-06T01:25:30.486Z,63.21
2023-03-06T01:26:02.986Z,63.48
2023-03-06T01:26:35.359Z,63.81
2023-03-06T01:27:07.674Z,63.65
2023-03-06T01:27:39.984Z,63.52
2023-03-06T01:28:12.244Z,63.53
2023-03-06T01:28:44.555Z,63.46
2023-03-06T01:29:16.863Z,63.71
2023-03-06T01:29:49.269Z,63.92
2023-03-06T01:30:21.585Z,63.90
2023-03-06T01:30:54.764Z,63.97
2023-03-06T01:31:27.227Z,63.99
2023-03-06T01:31:59.653Z,64.07
2023-03-06T01:32:32.847Z,64.01
2023-03-06T01:33:05.125Z,63.83
2023-03-06T01:33:37.823Z,64.02
2023-03-06T01:34:10.124Z,63.86
2023-03-06T01:34:42.465Z,63.89
2023-03-06T01:35:15.245Z,64.04
2023-03-06T01:35:47.830Z,63.99
2023-03-06T01:36:20.227Z,63.94
2023-03-06T01:36:52.482Z,63.93
2023-03-06T01:37:24.767Z,63.87
2023-03-06T01:37:57.084Z,64.12
2023-03-06T01:38:29.746Z,64.17
2023-03-06T01:39:02.122Z,64.05
2023-03-06T01:39:34.431Z,64.15
2023-03-06T01:40:08.848Z,64.44
2023-03-06T01:40:41.112Z,64.34
2023-03-06T01:41:15.874Z,63.97
2023-03-06T01:41:48.225Z,64.02
2023-03-06T01:42:20.663Z,63.83
2023-03-06T01:42:52.956Z,63.73
2023-03-06T01:43:28.083Z,63.66
2023-03-06T01:44:00.534Z,63.62
2023-03-06T01:44:33.151Z,63.61
2023-03-06T01:45:27.621Z,63.61
2023-03-06T01:46:24.571Z,63.90
2023-03-06T01:46:56.937Z,63.25
2023-03-06T01:47:29.347Z,63.27
2023-03-06T01:48:01.644Z,63.52
2023-03-06T01:48:34.089Z,63.64
2023-03-06T01:49:13.199Z,63.47
2023-03-06T01:49:45.570Z,63.32
2023-03-06T01:50:17.988Z,63.21
2023-03-06T01:50:52.840Z,63.24
2023-03-06T01:51:30.523Z,63.53
2023-03-06T01:52:16.997Z,62.88
2023-03-06T01:52:57.188Z,63.63
2023-03-06T01:53:29.794Z,63.29
2023-03-06T01:54:08.711Z,63.43
2023-03-06T01:54:46.645Z,63.38
2023-03-06T01:55:39.388Z,63.30
2023-03-06T01:56:14.212Z,63.11
2023-03-06T01:56:51.294Z,63.61
2023-03-06T01:57:26.199Z,63.77
2023-03-06T01:58:02.842Z,63.34
2023-03-06T01:58:35.288Z,63.81
2023-03-06T01:59:07.817Z,63.80
2023-03-06T01:59:42.731Z,63.85
2023-03-06T02:00:18.539Z,63.84
2023-03-06T02:00:50.829Z,63.72
2023-03-06T02:01:23.410Z,63.64
2023-03-06T02:01:59.005Z,63.76
2023-03-06T02:02:31.377Z,63.93
2023-03-06T02:03:14.614Z,64.26
2023-03-06T02:03:49.920Z,64.24
2023-03-06T02:04:22.536Z,63.87
2023-03-06T02:04:54.808Z,63.75
2023-03-06T02:05:27.190Z,63.74
2023-03-06T02:05:59.655Z,63.81
2023-03-06T02:06:36.527Z,63.81
2023-03-06T02:07:10.415Z,64.39
2023-03-06T02:07:44.355Z,64.01
2023-03-06T02:08:20.064Z,63.27
2023-03-06T02:08:52.901Z,63.93
2023-03-06T02:09:29.861Z,64.15
2023-03-06T02:10:02.190Z,63.99
2023-03-06T02:10:34.775Z,64.02
2023-03-06T02:11:20.864Z,63.73
2023-03-06T02:11:53.134Z,63.82
2023-03-06T02:12:26.434Z,63.82
2023-03-06T02:12:58.899Z,63.72
2023-03-06T02:13:31.393Z,63.67
2023-03-06T02:14:04.103Z,63.31
2023-03-06T02:14:38.248Z,63.67
2023-03-06T02:15:12.892Z,63.58
2023-03-06T02:15:45.192Z,63.37
2023-03-06T02:16:21.404Z,63.48
2023-03-06T02:16:53.912Z,63.03
2023-03-06T02:17:27.652Z,63.17
2023-03-06T02:18:00.280Z,63.32
2023-03-06T02:18:34.079Z,63.44
2023-03-06T02:19:13.801Z,63.36
2023-03-06T02:20:12.008Z,63.42
2023-03-06T02:20:50.359Z,64.39
2023-03-06T02:21:30.702Z,65.28
2023-03-06T02:22:03.459Z,65.32
2023-03-06T02:22:54.356Z,65.26
2023-03-06T02:23:31.734Z,64.64
2023-03-06T02:24:06.983Z,63.65
2023-03-06T02:24:49.977Z,63.58
2023-03-06T02:25:31.571Z,63.56
2023-03-06T02:26:05.478Z,63.41
2023-03-06T02:26:39.277Z,63.37
2023-03-06T02:27:14.314Z,63.55
2023-03-06T02:27:47.966Z,63.38
2023-03-06T02:28:23.542Z,63.07
2023-03-06T02:28:58.432Z,62.75
2023-03-06T02:29:30.939Z,62.49
2023-03-06T02:30:08.753Z,62.23
2023-03-06T02:30:42.747Z,62.89
2023-03-06T02:31:25.202Z,62.91
2023-03-06T02:31:58.081Z,63.40
2023-03-06T02:32:30.385Z,63.07
2023-03-06T02:33:03.439Z,63.29
2023-03-06T02:33:35.764Z,63.23
2023-03-06T02:34:13.848Z,63.40
2023-03-06T02:34:50.792Z,63.51
2023-03-06T02:35:25.905Z,63.53
2023-03-06T02:36:04.529Z,63.67
2023-03-06T02:36:43.159Z,63.27
2023-03-06T02:37:15.436Z,63.19
2023-03-06T02:37:47.819Z,63.26
2023-03-06T02:38:24.078Z,63.25
2023-03-06T02:38:58.108Z,63.16
2023-03-06T02:39:34.112Z,62.88
2023-03-06T02:40:12.377Z,62.66
2023-03-06T02:40:48.721Z,62.65
2023-03-06T02:41:21.019Z,62.65
2023-03-06T02:41:53.406Z,62.71
2023-03-06T02:42:28.966Z,62.68
2023-03-06T02:43:01.712Z,62.69
2023-03-06T02:43:38.457Z,62.80
2023-03-06T02:44:10.764Z,63.04
2023-03-06T02:44:43.098Z,63.15
2023-03-06T02:45:22.097Z,63.05
2023-03-06T02:45:54.436Z,63.49
2023-03-06T02:46:26.769Z,63.66
2023-03-06T02:46:59.073Z,63.99
2023-03-06T02:47:31.936Z,63.79
2023-03-06T02:48:04.429Z,62.79
2023-03-06T02:48:36.736Z,62.09
2023-03-06T02:49:09.030Z,61.76
2023-03-06T02:49:41.320Z,61.86
2023-03-06T02:50:13.804Z,61.80
2023-03-06T02:50:47.404Z,62.00
2023-03-06T02:51:19.714Z,62.68
2023-03-06T02:51:52.039Z,63.35
2023-03-06T02:52:24.562Z,64.16
2023-03-06T02:52:56.843Z,64.07
2023-03-06T02:53:29.291Z,64.30
2023-03-06T02:54:01.621Z,64.05
2023-03-06T02:54:33.906Z,64.02
2023-03-06T02:55:06.717Z,63.87
2023-03-06T02:55:39.300Z,63.89
2023-03-06T02:56:11.590Z,64.26
2023-03-06T02:56:45.044Z,64.60
2023-03-06T02:57:17.321Z,63.48
2023-03-06T02:57:49.640Z,62.36
2023-03-06T02:58:21.972Z,62.96
2023-03-06T02:58:54.232Z,63.21
2023-03-06T02:59:26.554Z,63.67
2023-03-06T02:59:59.550Z,63.82
2023-03-06T03:00:32.649Z,63.59
2023-03-06T03:01:05.679Z,62.59
2023-03-06T03:01:38.121Z,62.52
2023-03-06T03:02:10.719Z,63.17
2023-03-06T03:02:44.074Z,63.46
2023-03-06T03:03:17.140Z,63.52
2023-03-06T03:03:49.404Z,63.25
2023-03-06T03:04:21.747Z,62.60
2023-03-06T03:04:54.070Z,62.69
2023-03-06T03:05:26.334Z,62.80
2023-03-06T03:05:59.963Z,62.85
2023-03-06T03:06:32.258Z,62.62
2023-03-06T03:07:04.580Z,62.60
2023-03-06T03:07:36.876Z,62.81
2023-03-06T03:08:09.176Z,62.91
2023-03-06T03:08:41.419Z,63.05
2023-03-06T03:09:14.106Z,63.07
2023-03-06T03:09:46.514Z,63.23
2023-03-06T03:10:18.934Z,63.26
2023-03-06T03:10:51.371Z,63.35
2023-03-06T03:11:23.662Z,63.77
2023-03-06T03:11:56.010Z,63.83
2023-03-06T03:12:28.741Z,63.93
2023-03-06T03:13:01.030Z,63.98
2023-03-06T03:13:33.341Z,63.82
2023-03-06T03:14:05.627Z,63.58
2023-03-06T03:14:38.012Z,63.41
2023-03-06T03:15:10.795Z,63.48
2023-03-06T03:15:43.250Z,63.56
2023-03-06T03:16:15.790Z,63.71
2023-03-06T03:16:48.112Z,64.16
2023-03-06T03:17:20.433Z,64.09
2023-03-06T03:17:52.775Z,64.16
2023-03-06T03:18:25.152Z,64.01
2023-03-06T03:18:57.458Z,63.97
2023-03-06T03:19:30.075Z,63.76
2023-03-06T03:20:02.592Z,63.57
2023-03-06T03:20:34.892Z,63.48
2023-03-06T03:21:11.523Z,63.52
2023-03-06T03:21:43.802Z,63.65
2023-03-06T03:22:16.862Z,63.66
2023-03-06T03:22:51.367Z,63.68
2023-03-06T03:23:24.423Z,63.61
2023-03-06T03:23:56.861Z,63.80
2023-03-06T03:24:29.195Z,63.94
2023-03-06T03:25:01.512Z,63.90
2023-03-06T03:25:33.807Z,63.92
2023-03-06T03:26:18.610Z,63.70
2023-03-06T03:26:50.942Z,63.79
2023-03-06T03:27:23.279Z,63.78
2023-03-06T03:27:55.589Z,63.70
2023-03-06T03:28:27.849Z,63.50
2023-03-06T03:29:00.156Z,63.54
2023-03-06T03:29:33.436Z,63.52
2023-03-06T03:30:06.240Z,63.55
2023-03-06T03:30:40.492Z,63.39
2023-03-06T03:31:13.256Z,63.47
2023-03-06T03:31:45.585Z,63.51
2023-03-06T03:32:17.958Z,63.52
2023-03-06T03:32:50.436Z,63.57
2023-03-06T03:33:22.702Z,63.50
2023-03-06T03:33:55.036Z,63.48
2023-03-06T03:34:27.642Z,63.33
2023-03-06T03:34:59.989Z,63.32
2023-03-06T03:35:32.485Z,63.47
2023-03-06T03:36:07.262Z,63.56
2023-03-06T03:36:40.138Z,63.64
2023-03-06T03:37:12.409Z,63.66
2023-03-06T03:37:44.685Z,63.50
2023-03-06T03:38:17.037Z,63.51
2023-03-06T03:38:49.306Z,63.56
2023-03-06T03:39:21.643Z,63.58
2023-03-06T03:39:53.942Z,63.59
2023-03-06T03:40:26.301Z,63.65
2023-03-06T03:40:58.584Z,63.67
2023-03-06T03:41:31.184Z,63.88
2023-03-06T03:42:03.566Z,63.95
2023-03-06T03:42:35.862Z,64.09
2023-03-06T03:43:08.121Z,64.05
2023-03-06T03:43:40.442Z,64.11
2023-03-06T03:44:12.742Z,64.17
2023-03-06T03:44:45.138Z,64.22
2023-03-06T03:45:17.475Z,64.31
2023-03-06T03:45:49.830Z,64.32
2023-03-06T03:46:22.118Z,64.26
2023-03-06T03:46:54.415Z,64.22
2023-03-06T03:47:26.688Z,64.20
2023-03-06T03:47:58.974Z,64.11
2023-03-06T03:48:31.373Z,64.16
2023-03-06T03:49:04.223Z,64.17
2023-03-06T03:49:36.536Z,64.17
2023-03-06T03:50:11.479Z,64.14
2023-03-06T03:50:43.816Z,64.04
2023-03-06T03:51:16.659Z,64.04
2023-03-06T03:51:48.996Z,64.23
2023-03-06T03:52:21.315Z,64.19
2023-03-06T03:52:53.568Z,64.03
2023-03-06T03:53:25.860Z,64.01
2023-03-06T03:53:58.194Z,64.03
2023-03-06T03:54:30.610Z,64.10
2023-03-06T03:55:03.946Z,64.30
2023-03-06T03:55:36.686Z,64.41
2023-03-06T03:56:09.050Z,64.39
2023-03-06T03:56:41.867Z,64.43
2023-03-06T03:57:14.155Z,64.37
2023-03-06T03:57:46.441Z,64.48
2023-03-06T03:58:18.717Z,64.36
2023-03-06T03:58:51.859Z,64.17
2023-03-06T03:59:24.504Z,64.19
2023-03-06T03:59:56.898Z,64.14
2023-03-06T04:00:29.245Z,64.16
2023-03-06T04:01:02.021Z,64.25
2023-03-06T04:01:34.430Z,64.31
2023-03-06T04:02:06.801Z,64.28
2023-03-06T04:02:39.127Z,64.17
2023-03-06T04:03:11.435Z,64.10
2023-03-06T04:03:43.916Z,63.97
2023-03-06T04:04:16.490Z,64.09
2023-03-06T04:04:49.014Z,64.10
2023-03-06T04:05:21.295Z,64.22
2023-03-06T04:05:58.005Z,64.56
2023-03-06T04:06:30.647Z,64.64
2023-03-06T04:07:04.434Z,64.58
2023-03-06T04:07:36.982Z,64.62
2023-03-06T04:08:09.817Z,64.41
2023-03-06T04:08:42.196Z,64.66
2023-03-06T04:09:14.504Z,64.73
2023-03-06T04:09:47.381Z,64.73
2023-03-06T04:10:19.681Z,64.37
2023-03-06T04:10:52.846Z,64.07
2023-03-06T04:11:25.365Z,64.02
2023-03-06T04:11:57.635Z,64.00
2023-03-06T04:12:29.919Z,63.86
2023-03-06T04:13:02.260Z,63.95
2023-03-06T04:13:34.549Z,64.01
2023-03-06T04:14:08.315Z,63.98
2023-03-06T04:14:40.558Z,64.00
2023-03-06T04:15:12.860Z,64.06
2023-03-06T04:15:45.382Z,64.06
2023-03-06T04:16:17.741Z,64.09
2023-03-06T04:16:50.030Z,64.01
2023-03-06T04:17:22.315Z,63.95
2023-03-06T04:17:54.609Z,63.93
2023-03-06T04:18:27.248Z,63.93
2023-03-06T04:18:59.524Z,63.91
2023-03-06T04:19:32.687Z,64.06
2023-03-06T04:20:05.418Z,64.18
2023-03-06T04:20:37.730Z,64.09
2023-03-06T04:21:10.033Z,64.10
2023-03-06T04:21:42.349Z,64.17
2023-03-06T04:22:14.668Z,64.22
2023-03-06T04:23:07.286Z,64.12
2023-03-06T04:23:59.781Z,64.00
2023-03-06T04:24:32.100Z,64.22
2023-03-06T04:25:04.702Z,63.92
2023-03-06T04:25:37.019Z,63.67
2023-03-06T04:26:09.697Z,63.59
2023-03-06T04:26:42.084Z,63.51
2023-03-06T04:27:14.437Z,63.56
2023-03-06T04:27:46.702Z,63.63
2023-03-06T04:28:19.077Z,63.72
2023-03-06T04:28:51.384Z,63.91
2023-03-06T04:29:23.860Z,64.02
2023-03-06T04:29:56.504Z,64.04
2023-03-06T04:30:28.806Z,64.27
2023-03-06T04:31:01.100Z,64.11
2023-03-06T04:31:33.844Z,64.08
2023-03-06T04:32:06.556Z,64.01
2023-03-06T04:32:38.961Z,64.03
2023-03-06T04:33:11.725Z,64.00
2023-03-06T04:33:44.043Z,63.79
2023-03-06T04:34:16.323Z,63.87
2023-03-06T04:34:48.606Z,64.13
2023-03-06T04:35:20.894Z,64.41
2023-03-06T04:35:53.621Z,64.26
2023-03-06T04:36:25.925Z,64.14
2023-03-06T04:36:58.189Z,64.16
2023-03-06T04:37:31.072Z,64.28
2023-03-06T04:38:04.666Z,64.38
2023-03-06T04:38:36.955Z,64.11
2023-03-06T04:39:09.365Z,64.06
2023-03-06T04:39:41.698Z,63.98
2023-03-06T04:40:23.765Z,64.03
2023-03-06T04:40:56.229Z,63.92
2023-03-06T04:41:28.793Z,63.78
2023-03-06T04:42:01.242Z,63.95
2023-03-06T04:42:33.591Z,63.97
2023-03-06T04:43:05.904Z,63.83
2023-03-06T04:43:39.615Z,63.71
2023-03-06T04:44:11.941Z,63.77
2023-03-06T04:44:44.911Z,63.85
2023-03-06T04:45:17.277Z,63.87
2023-03-06T04:45:49.629Z,64.12
2023-03-06T04:46:22.001Z,63.87
2023-03-06T04:46:54.309Z,63.77
2023-03-06T04:47:26.630Z,63.88
2023-03-06T04:47:59.750Z,64.08
2023-03-06T04:48:32.249Z,63.88
2023-03-06T04:49:04.621Z,64.03
2023-03-06T04:49:37.547Z,64.00
2023-03-06T04:50:10.577Z,63.99
2023-03-06T04:50:42.883Z,64.09
2023-03-06T04:51:15.186Z,64.21
2023-03-06T04:51:47.540Z,64.37
2023-03-06T04:52:19.837Z,64.35
2023-03-06T04:52:52.553Z,64.24
2023-03-06T04:53:24.844Z,64.30
2023-03-06T04:53:57.328Z,64.36
2023-03-06T04:54:30.098Z,64.31
2023-03-06T04:55:08.512Z,64.29
2023-03-06T04:55:40.815Z,64.49
2023-03-06T04:56:13.276Z,64.69
2023-03-06T04:56:45.572Z,64.73
2023-03-06T04:57:18.143Z,64.68
2023-03-06T04:57:50.484Z,64.70
2023-03-06T04:58:22.802Z,64.72
2023-03-06T04:58:55.520Z,64.73
2023-03-06T04:59:27.879Z,64.81
2023-03-06T05:00:00.198Z,64.77
2023-03-06T05:00:32.581Z,64.62
2023-03-06T05:01:05.056Z,64.61
2023-03-06T05:01:37.416Z,64.64
2023-03-06T05:02:09.821Z,64.70
2023-03-06T05:02:44.078Z,64.70
2023-03-06T05:03:16.536Z,64.78
2023-03-06T05:03:49.802Z,64.80
2023-03-06T05:04:22.090Z,64.83
2023-03-06T05:04:54.404Z,64.83
2023-03-06T05:05:27.592Z,65.16
2023-03-06T05:05:59.903Z,65.11
2023-03-06T05:06:32.620Z,64.98
2023-03-06T05:07:05.009Z,65.01
2023-03-06T05:07:37.831Z,64.92
2023-03-06T05:08:15.344Z,64.95
2023-03-06T05:08:48.018Z,64.90
2023-03-06T05:09:20.363Z,64.70
2023-03-06T05:09:52.680Z,64.66
2023-03-06T05:10:25.181Z,64.77
2023-03-06T05:11:00.510Z,64.65
2023-03-06T05:11:32.798Z,64.64
2023-03-06T05:12:05.155Z,64.62
2023-03-06T05:12:37.884Z,64.56
2023-03-06T05:13:10.610Z,64.60
2023-03-06T05:13:43.001Z,64.73
2023-03-06T05:14:15.322Z,64.76
2023-03-06T05:14:48.150Z,64.82
2023-03-06T05:15:21.039Z,64.74
2023-03-06T05:15:53.971Z,64.80
2023-03-06T05:16:26.987Z,64.92
2023-03-06T05:17:00.375Z,65.10
2023-03-06T05:17:32.885Z,65.06
2023-03-06T05:18:05.183Z,65.17
2023-03-06T05:18:37.607Z,64.97
2023-03-06T05:19:09.902Z,64.87
2023-03-06T05:19:42.160Z,64.88
2023-03-06T05:20:16.752Z,64.94
2023-03-06T05:20:49.063Z,64.72
2023-03-06T05:21:21.352Z,64.66
2023-03-06T05:21:53.623Z,64.55
2023-03-06T05:22:26.024Z,64.55
2023-03-06T05:22:58.308Z,64.46
2023-03-06T05:23:32.479Z,64.49
2023-03-06T05:24:04.909Z,64.48
2023-03-06T05:24:37.452Z,64.32
2023-03-06T05:25:10.771Z,64.36
2023-03-06T05:25:43.073Z,64.47
2023-03-06T05:26:16.307Z,64.50
2023-03-06T05:26:48.613Z,64.76
2023-03-06T05:27:20.990Z,64.90
2023-03-06T05:27:53.259Z,64.98
2023-03-06T05:28:26.648Z,65.11
2023-03-06T05:28:58.957Z,65.40
2023-03-06T05:29:31.253Z,65.26
2023-03-06T05:30:04.116Z,65.09
2023-03-06T05:30:36.423Z,64.97
2023-03-06T05:31:08.959Z,65.08
2023-03-06T05:31:41.298Z,64.85
2023-03-06T05:32:13.807Z,64.93
2023-03-06T05:32:46.297Z,65.09
2023-03-06T05:33:18.676Z,65.17
2023-03-06T05:33:50.966Z,65.14
2023-03-06T05:34:23.251Z,64.95
2023-03-06T05:34:55.775Z,64.77
2023-03-06T05:35:28.145Z,64.80
2023-03-06T05:36:01.065Z,64.78
2023-03-06T05:36:33.362Z,64.70
2023-03-06T05:37:05.754Z,64.63
2023-03-06T05:37:38.115Z,64.56
2023-03-06T05:38:10.461Z,64.46
2023-03-06T05:38:42.797Z,64.46
2023-03-06T05:39:15.065Z,64.41
2023-03-06T05:39:47.346Z,64.53
2023-03-06T05:40:19.731Z,64.64
2023-03-06T05:40:52.045Z,64.60
2023-03-06T05:41:24.310Z,64.47
2023-03-06T05:41:56.667Z,64.52
2023-03-06T05:42:31.149Z,64.59
2023-03-06T05:43:03.465Z,64.55
2023-03-06T05:43:35.756Z,64.52
2023-03-06T05:44:09.081Z,64.55
2023-03-06T05:44:41.844Z,64.47
2023-03-06T05:45:14.250Z,64.64
2023-03-06T05:45:46.637Z,64.59
2023-03-06T05:46:18.973Z,64.54
2023-03-06T05:46:51.329Z,64.53
2023-03-06T05:47:23.583Z,64.48
2023-03-06T05:47:55.859Z,64.38
2023-03-06T05:48:28.197Z,64.38
2023-03-06T05:49:00.549Z,64.39
2023-03-06T05:49:35.086Z,64.42
2023-03-06T05:50:08.400Z,64.49
2023-03-06T05:50:40.707Z,64.32
2023-03-06T05:51:13.003Z,64.29
2023-03-06T05:51:45.277Z,64.23
2023-03-06T05:52:17.837Z,64.32
2023-03-06T05:52:50.270Z,64.42
2023-03-06T05:53:22.582Z,64.41
2023-03-06T05:53:54.861Z,64.34
2023-03-06T05:54:27.163Z,64.38
2023-03-06T05:54:59.459Z,64.43
2023-03-06T05:55:31.809Z,64.51
2023-03-06T05:56:11.577Z,64.66
2023-03-06T05:56:43.862Z,64.76
2023-03-06T05:57:16.413Z,64.89
2023-03-06T05:57:48.743Z,64.99
2023-03-06T05:58:20.996Z,64.61
2023-03-06T05:58:53.280Z,64.49
2023-03-06T05:59:28.489Z,64.35
2023-03-06T06:00:00.893Z,64.35
2023-03-06T06:00:33.207Z,64.37
2023-03-06T06:01:20.053Z,64.41
2023-03-06T06:01:52.392Z,64.54
2023-03-06T06:02:24.732Z,64.16
2023-03-06T06:03:00.504Z,64.19
2023-03-06T06:03:32.799Z,64.21
2023-03-06T06:04:05.358Z,64.23
2023-03-06T06:04:37.773Z,64.05
2023-03-06T06:05:12.563Z,63.89
2023-03-06T06:05:45.331Z,63.92
2023-03-06T06:06:18.157Z,63.90
2023-03-06T06:06:56.112Z,63.96
2023-03-06T06:07:28.445Z,64.04
2023-03-06T06:08:01.080Z,64.08
2023-03-06T06:08:33.663Z,64.12
2023-03-06T06:09:06.043Z,64.29
2023-03-06T06:09:38.438Z,64.28
2023-03-06T06:10:11.662Z,64.10
2023-03-06T06:10:44.027Z,64.15
2023-03-06T06:11:18.297Z,64.29
2023-03-06T06:11:54.706Z,64.36
2023-03-06T06:12:27.495Z,64.49
2023-03-06T06:12:59.797Z,64.21
2023-03-06T06:13:32.568Z,64.11
2023-03-06T06:14:04.845Z,63.89
2023-03-06T06:14:37.386Z,63.86
2023-03-06T06:15:10.015Z,63.95
2023-03-06T06:15:42.325Z,64.06
2023-03-06T06:16:16.688Z,63.89
2023-03-06T06:16:49.526Z,63.68
2023-03-06T06:17:21.799Z,63.74
2023-03-06T06:17:54.283Z,63.89
2023-03-06T06:18:26.695Z,63.83
2023-03-06T06:18:59.121Z,63.78
2023-03-06T06:19:31.672Z,63.85
2023-03-06T06:20:04.676Z,63.96
2023-03-06T06:20:37.622Z,63.92
2023-03-06T06:21:12.015Z,63.88
2023-03-06T06:21:52.534Z,63.90
2023-03-06T06:22:25.003Z,63.87
2023-03-06T06:22:57.803Z,63.76
2023-03-06T06:23:30.105Z,63.74
2023-03-06T06:24:02.475Z,63.70
2023-03-06T06:24:34.908Z,63.38
2023-03-06T06:25:07.783Z,63.23
2023-03-06T06:25:40.151Z,63.35
2023-03-06T06:26:12.460Z,63.49
2023-03-06T06:26:45.359Z,63.58
2023-03-06T06:27:17.647Z,63.57
2023-03-06T06:27:49.996Z,63.58
2023-03-06T06:28:22.324Z,63.64
2023-03-06T06:28:54.759Z,63.33
2023-03-06T06:29:28.301Z,63.12
2023-03-06T06:30:00.647Z,63.06
2023-03-06T06:30:33.941Z,62.90
2023-03-06T06:31:12.254Z,62.77
2023-03-06T06:31:45.103Z,62.87
2023-03-06T06:32:17.415Z,63.13
2023-03-06T06:32:49.941Z,63.22
2023-03-06T06:33:22.322Z,63.06
2023-03-06T06:33:54.643Z,63.07
2023-03-06T06:34:28.232Z,62.93
2023-03-06T06:35:00.725Z,62.80
2023-03-06T06:35:36.202Z,62.87
2023-03-06T06:36:19.581Z,62.83
2023-03-06T06:36:53.531Z,62.64
2023-03-06T06:37:26.205Z,62.64
2023-03-06T06:37:58.499Z,62.90
2023-03-06T06:38:30.873Z,62.84
2023-03-06T06:39:08.077Z,62.73
2023-03-06T06:39:40.618Z,62.97
2023-03-06T06:40:13.274Z,63.15
2023-03-06T06:41:04.210Z,63.20
2023-03-06T06:41:54.920Z,63.14
2023-03-06T06:42:35.830Z,62.99
2023-03-06T06:43:10.734Z,62.92
2023-03-06T06:43:43.066Z,62.96
2023-03-06T06:44:16.291Z,63.02
2023-03-06T06:44:48.663Z,63.02
2023-03-06T06:45:23.535Z,63.30
2023-03-06T06:46:31.514Z,63.44
2023-03-06T06:47:21.999Z,63.55
2023-03-06T06:47:52.090Z,63.37
2023-03-06T06:48:24.818Z,62.90
2023-03-06T06:49:06.370Z,62.77
2023-03-06T06:49:39.801Z,62.70
2023-03-06T06:50:13.708Z,62.87
2023-03-06T06:50:46.092Z,63.12
2023-03-06T06:51:18.622Z,62.99
2023-03-06T06:51:50.914Z,63.15
2023-03-06T06:52:24.709Z,63.22
2023-03-06T06:52:57.131Z,63.35
2023-03-06T06:53:29.634Z,63.25
2023-03-06T06:54:02.092Z,63.27
2023-03-06T06:54:34.824Z,63.24
2023-03-06T06:55:08.283Z,62.77
2023-03-06T06:55:40.656Z,62.83
2023-03-06T06:56:13.477Z,62.75
2023-03-06T06:56:45.767Z,62.65
2023-03-06T06:57:18.097Z,62.80
2023-03-06T06:57:50.403Z,62.79
2023-03-06T06:58:22.704Z,62.87
2023-03-06T06:59:03.917Z,62.84
2023-03-06T06:59:46.438Z,63.04
2023-03-06T07:00:19.235Z,63.29
2023-03-06T07:00:52.023Z,63.31
2023-03-06T07:01:24.395Z,63.28
2023-03-06T07:01:57.117Z,63.06
2023-03-06T07:02:29.423Z,63.02
2023-03-06T07:03:01.833Z,63.13
2023-03-06T07:03:34.508Z,63.25
2023-03-06T07:04:06.906Z,63.23
2023-03-06T07:04:49.260Z,62.98
2023-03-06T07:05:28.750Z,62.68
2023-03-06T07:06:01.115Z,62.76
2023-03-06T07:06:33.524Z,62.82
2023-03-06T07:07:06.020Z,62.86
2023-03-06T07:07:39.290Z,62.96
2023-03-06T07:08:11.709Z,62.77
2023-03-06T07:08:44.001Z,62.55
2023-03-06T07:09:16.455Z,62.65
2023-03-06T07:09:48.910Z,63.06
2023-03-06T07:10:21.293Z,63.59
2023-03-06T07:10:56.115Z,63.44